ADDS METAR Data INFO
IDs: Format: Raw Decoded Include TAF

Data at: 0323 UTC 16 Dec 2017

KEXX 160305Z AUTO 00000KT 10SM CLR 00/M05 A3009 RMK AO2 T10011047
KEXX 160245Z AUTO 00000KT 10SM CLR 00/M04 A3008 RMK AO2 T00001045
KEXX 160225Z AUTO 00000KT 10SM CLR 00/M05 A3008 RMK AO2 T10041046
KEXX 160205Z AUTO 00000KT 10SM CLR M01/M04 A3007 RMK AO2 T10101042
KEXX 160145Z AUTO 00000KT 10SM CLR 00/M04 A3006 RMK AO2 T10031040
KEXX 160125Z AUTO 00000KT 10SM CLR 00/M04 A3006 RMK AO2 T10011038
KEXX 160105Z AUTO 00000KT 10SM CLR 00/M03 A3005 RMK AO2 T10011033
KEXX 160045Z AUTO 00000KT 10SM CLR 00/M03 A3004 RMK AO2 T10011030
KEXX 160025Z AUTO 00000KT 10SM CLR 01/M03 A3004 RMK AO2 T00051026
KEXX 160005Z AUTO 00000KT 10SM CLR 01/M02 A3003 RMK AO2 T00081025
KEXX 152345Z AUTO 00000KT 10SM CLR 01/M02 A3002 RMK AO2 T00141022
KEXX 152325Z AUTO 00000KT 10SM CLR 02/M02 A3001 RMK AO2 T00211022
KEXX 152305Z AUTO 00000KT 10SM CLR 03/M02 A3001 RMK AO2 T00281021
KEXX 152245Z AUTO 00000KT 10SM CLR 03/M02 A2999 RMK AO2 T00311021
KEXX 152225Z AUTO 00000KT 10SM CLR 04/M02 A2999 RMK AO2 T00391021
KEXX 152205Z AUTO 00000KT 10SM CLR 04/M02 A2997 RMK AO2 T00431022
KEXX 152145Z AUTO 00000KT 10SM CLR 05/M02 A2997 RMK AO2 T00451023
KEXX 152125Z AUTO 00000KT 10SM CLR 05/M02 A2996 RMK AO2 T00461022
KEXX 152105Z AUTO 00000KT 10SM CLR 05/M02 A2994 RMK AO2 T00471025
KEXX 152045Z AUTO 00000KT 10SM CLR 05/M02 A2994 RMK AO2 T00501025
KEXX 152025Z AUTO 00000KT 10SM CLR 05/M03 A2996 RMK AO2 T00461026
KEXX 152005Z AUTO 00000KT 10SM CLR 05/M03 A2995 RMK AO2 T00461026
KEXX 151945Z AUTO 00000KT 10SM CLR 05/M03 A2995 RMK AO2 T00451027
KEXX 151925Z AUTO 31003KT 10SM CLR 05/M03 A2994 RMK AO2 T00461028
KEXX 151905Z AUTO 00000KT 10SM CLR 05/M03 A2994 RMK AO2 T00481028
KEXX 151845Z AUTO 00000KT 10SM CLR 05/M03 A2994 RMK AO2 T00461030
KEXX 151825Z AUTO 26004KT 10SM CLR 05/M03 A2995 RMK AO2 T00501028
KEXX 151805Z AUTO 00000KT 10SM CLR 04/M03 A2995 RMK AO2 T00421030
KEXX 151745Z AUTO 30004KT 10SM CLR 04/M03 A2995 RMK AO2 T00411032
KEXX 151725Z AUTO 00000KT 10SM CLR 04/M03 A2995 RMK AO2 T00391031
KEXX 151705Z AUTO 00000KT 10SM CLR 04/M03 A2995 RMK AO2 T00381034
KEXX 151645Z AUTO 00000KT 10SM CLR 04/M03 A2996 RMK AO2 T00361034
KEXX 151625Z AUTO 00000KT 10SM CLR 04/M03 A2998 RMK AO2 T00401030
KEXX 151605Z AUTO 00000KT 10SM CLR 03/M03 A2999 RMK AO2 T00331035
KEXX 151545Z AUTO 00000KT 10SM CLR 04/M03 A2999 RMK AO2 T00351032
KEXX 151525Z AUTO 00000KT 10SM CLR 03/M03 A2999 RMK AO2 T00281033
KEXX 151505Z AUTO 07003KT 10SM CLR 02/M04 A2999 RMK AO2 T00211038
KEXX 151445Z AUTO 04003KT 10SM CLR 02/M03 A2999 RMK AO2 T00241034
KEXX 151425Z AUTO 00000KT 10SM CLR 02/M04 A2999 RMK AO2 T00161038
KEXX 151405Z AUTO 05005KT 10SM CLR 01/M04 A2999 RMK AO2 T00131040
KEXX 151345Z AUTO 00000KT 10SM CLR 01/M04 A2999 RMK AO2 T00081042
KEXX 151325Z AUTO 04003KT 10SM SCT021 01/M04 A2999 RMK AO2 T00071043
KEXX 151305Z AUTO 00000KT 10SM SCT021 00/M04 A2998 RMK AO2 T00001045
KEXX 151245Z AUTO 02003KT 10SM SCT023 00/M04 A2999 RMK AO2 T00011043
KEXX 151225Z AUTO 00000KT 10SM SCT021 01/M04 A2999 RMK AO2 T00051040
KEXX 151205Z AUTO 03003KT 10SM BKN021 01/M04 A2999 RMK AO2 T00081038
KEXX 151145Z AUTO 00000KT 10SM SCT021 01/M04 A2999 RMK AO2 T00101038
KEXX 151125Z AUTO 02003KT 10SM CLR 01/M04 A2999 RMK AO2 T00101039
KEXX 151105Z AUTO 02003KT 10SM CLR 01/M04 A2998 RMK AO2 T00101041
KEXX 151045Z AUTO 00000KT 10SM CLR 01/M04 A2997 RMK AO2 T00121042
KEXX 151025Z AUTO 00000KT 10SM SCT110 02/M04 A2998 RMK AO2 T00151043
KEXX 151005Z AUTO 00000KT 10SM SCT110 02/M04 A2997 RMK AO2 T00151045
KEXX 150945Z AUTO 02003KT 10SM SCT120 02/M05 A2997 RMK AO2 T00161046
KEXX 150925Z AUTO 00000KT 10SM CLR 02/M05 A2998 RMK AO2 T00151049
KEXX 150905Z AUTO 00000KT 10SM CLR 02/M05 A2999 RMK AO2 T00151050
KEXX 150845Z AUTO 00000KT 10SM CLR 02/M05 A2999 RMK AO2 T00151050
KEXX 150825Z AUTO 00000KT 10SM CLR 02/M05 A2998 RMK AO2 T00161050
KEXX 150805Z AUTO 00000KT 10SM CLR 02/M05 A2998 RMK AO2 T00161050
KEXX 150745Z AUTO 00000KT 10SM CLR 02/M05 A2998 RMK AO2 T00161050
KEXX 150725Z AUTO 03004KT 10SM CLR 02/M05 A2998 RMK AO2 T00151050
KEXX 150705Z AUTO 03003KT 10SM CLR 01/M05 A2997 RMK AO2 T00141048
KEXX 150645Z AUTO 03004KT 10SM CLR 02/M04 A2998 RMK AO2 T00161045
KEXX 150625Z AUTO 02003KT 10SM CLR 02/M05 A2998 RMK AO2 T00181047
KEXX 150605Z AUTO 00000KT 10SM CLR 02/M05 A2999 RMK AO2 T00241046
KEXX 150545Z AUTO 00000KT 10SM CLR 03/M04 A2999 RMK AO2 T00271045
KEXX 150525Z AUTO 00000KT 10SM CLR 03/M04 A3000 RMK AO2 T00291045
KEXX 150505Z AUTO 00000KT 10SM CLR 03/M04 A3000 RMK AO2 T00341041
KEXX 150445Z AUTO 03003KT 10SM CLR 04/M04 A3000 RMK AO2 T00361040
KEXX 150425Z AUTO 05004KT 10SM CLR 04/M04 A3001 RMK AO2 T00391039
KEXX 150405Z AUTO 05004KT 10SM CLR 04/M04 A2999 RMK AO2 T00391036
KEXX 150345Z AUTO 00000KT 10SM CLR 04/M03 A2999 RMK AO2 T00441035
KEXX 150320Z AUTO 05003KT 10SM CLR 05/M03 A2999 RMK AO2 T00461033
KEXX 150305Z AUTO 05004KT 10SM CLR 05/M03 A2998 RMK AO2 T00471030
KEXX 150245Z AUTO 04003KT 10SM CLR 05/M03 A2997 RMK AO2 T00471028
KEXX 150225Z AUTO 00000KT 10SM CLR 05/M03 A2997 RMK AO2 T00501027
KEXX 150205Z AUTO 03003KT 10SM CLR 05/M03 A2996 RMK AO2 T00491027
KEXX 150145Z AUTO 00000KT 10SM CLR 04/M02 A2996 RMK AO2 T00421025
KEXX 150125Z AUTO 00000KT 10SM CLR 05/M03 A2996 RMK AO2 T00501026
KEXX 150105Z AUTO 00000KT 10SM CLR 06/M03 A2996 RMK AO2 T00561027
KEXX 150045Z AUTO 00000KT 10SM CLR 06/M03 A2995 RMK AO2 T00631028
KEXX 150025Z AUTO 00000KT 10SM CLR 07/M03 A2994 RMK AO2 T00711030
KEXX 150005Z AUTO 00000KT 10SM CLR 07/M03 A2994 RMK AO2 T00731029
KEXX 142345Z AUTO 00000KT 10SM CLR 08/M03 A2993 RMK AO2 T00751030
KEXX 142325Z AUTO 00000KT 10SM CLR 08/M03 A2992 RMK AO2 T00801030
KEXX 142305Z AUTO 00000KT 10SM CLR 07/M03 A2991 RMK AO2 T00741029
KEXX 142245Z AUTO 00000KT 10SM CLR 08/M03 A2991 RMK AO2 T00761030
KEXX 142225Z AUTO 00000KT 10SM CLR 08/M03 A2990 RMK AO2 T00821029
KEXX 142205Z AUTO 00000KT 10SM CLR 09/M03 A2990 RMK AO2 T00941033
KEXX 142145Z AUTO 00000KT 10SM CLR 10/M03 A2988 RMK AO2 T01021033
KEXX 142125Z AUTO 00000KT 10SM CLR 12/M03 A2988 RMK AO2 T01151035
KEXX 142105Z AUTO 00000KT 10SM CLR 12/M04 A2987 RMK AO2 T01161039
KEXX 142045Z AUTO 00000KT 10SM CLR 12/M04 A2987 RMK AO2 T01241038
KEXX 142025Z AUTO 23003KT 10SM CLR 12/M04 A2986 RMK AO2 T01211040
KEXX 142005Z AUTO 02003KT 10SM CLR 13/M04 A2985 RMK AO2 T01261038
KEXX 141945Z AUTO 34004KT 10SM CLR 13/M04 A2985 RMK AO2 T01251040
KEXX 141925Z AUTO 32004KT 10SM CLR 13/M04 A2985 RMK AO2 T01251042
KEXX 141905Z AUTO 31003KT 10SM CLR 12/M04 A2984 RMK AO2 T01231041
KEXX 141845Z AUTO 00000KT 10SM CLR 12/M04 A2985 RMK AO2 T01221042
KEXX 141825Z AUTO 25004KT 10SM CLR 12/M04 A2984 RMK AO2 T01201038
KEXX 141805Z AUTO 26007KT 210V280 10SM CLR 12/M04 A2984 RMK AO2 T01211040
KEXX 141745Z AUTO 24004KT 10SM CLR 12/M04 A2984 RMK AO2 T01211037
KEXX 141725Z AUTO 25004KT 10SM CLR 12/M04 A2985 RMK AO2 T01201037
KEXX 141705Z AUTO 00000KT 10SM CLR 11/M03 A2985 RMK AO2 T01141034
KEXX 141645Z AUTO 00000KT 10SM CLR 11/M03 A2986 RMK AO2 T01131033
KEXX 141625Z AUTO 33003KT 10SM CLR 11/M04 A2986 RMK AO2 T01061036
KEXX 141605Z AUTO 24006KT 10SM CLR 11/M03 A2986 RMK AO2 T01081033
KEXX 141545Z AUTO 00000KT 10SM CLR 10/M03 A2985 RMK AO2 T00971035
KEXX 141525Z AUTO 00000KT 10SM CLR 09/M03 A2985 RMK AO2 T00921035